sensor_id;sensor_type;location;lat;lon;timestamp;temperature;humidity
14893;DHT22;7538;53.626;9.906;2023-08-01T00:01:17;17.40;99.90
14893;DHT22;7538;53.626;9.906;2023-08-01T00:03:43;17.40;99.90
14893;DHT22;7538;53.626;9.906;2023-08-01T00:06:10;17.40;99.90
14893;DHT22;7538;53.626;9.906;2023-08-01T00:08:37;17.50;99.90
14893;DHT22;7538;53.626;9.906;2023-08-01T00:11:05;17.40;99.90
14893;DHT22;7538;53.626;9.906;2023-08-01T00:13:32;17.40;99.90
14893;DHT22;7538;53.626;9.906;2023-08-01T00:15:59;17.40;99.90
14893;DHT22;7538;53.626;9.906;2023-08-01T00:18:26;17.30;99.90
14893;DHT22;7538;53.626;9.906;2023-08-01T00:20:54;17.30;99.90
14893;DHT22;7538;53.626;9.906;2023-08-01T00:23:20;17.30;99.90
14893;DHT22;7538;53.626;9.906;2023-08-01T00:25:47;17.20;99.90
14893;DHT22;7538;53.626;9.906;2023-08-01T00:28:18;17.40;99.90
14893;DHT22;7538;53.626;9.906;2023-08-01T00:30:45;17.20;99.90
14893;DHT22;7538;53.626;9.906;2023-08-01T00:33:11;17.20;99.90
14893;DHT22;7538;53.626;9.906;2023-08-01T00:35:38;17.10;99.90
14893;DHT22;7538;53.626;9.906;2023-08-01T00:38:05;17.10;99.90
14893;DHT22;7538;53.626;9.906;2023-08-01T00:40:33;17.10;99.90
14893;DHT22;7538;53.626;9.906;2023-08-01T00:43:00;17.00;99.90
14893;DHT22;7538;53.626;9.906;2023-08-01T00:45:28;17.00;99.90
14893;DHT22;7538;53.626;9.906;2023-08-01T00:47:56;17.00;99.90
14893;DHT22;7538;53.626;9.906;2023-08-01T00:50:23;16.90;99.90
14893;DHT22;7538;53.626;9.906;2023-08-01T00:52:52;16.90;99.90
14893;DHT22;7538;53.626;9.906;2023-08-01T00:55:19;17.00;99.90
14893;DHT22;7538;53.626;9.906;2023-08-01T00:57:47;16.90;99.90
14893;DHT22;7538;53.626;9.906;2023-08-01T01:02:51;16.90;99.90
14893;DHT22;7538;53.626;9.906;2023-08-01T01:05:19;16.90;99.90
14893;DHT22;7538;53.626;9.906;2023-08-01T01:07:47;17.00;99.90
14893;DHT22;7538;53.626;9.906;2023-08-01T01:10:15;17.00;99.90
14893;DHT22;7538;53.626;9.906;2023-08-01T01:12:42;17.00;99.90
14893;DHT22;7538;53.626;9.906;2023-08-01T01:15:08;17.00;99.90
14893;DHT22;7538;53.626;9.906;2023-08-01T01:17:35;17.00;99.90
14893;DHT22;7538;53.626;9.906;2023-08-01T01:20:04;16.90;99.90
14893;DHT22;7538;53.626;9.906;2023-08-01T01:22:33;17.00;99.90
14893;DHT22;7538;53.626;9.906;2023-08-01T01:25:01;16.90;99.90
14893;DHT22;7538;53.626;9.906;2023-08-01T01:27:28;16.90;99.90
14893;DHT22;7538;53.626;9.906;2023-08-01T01:29:56;16.90;99.90
14893;DHT22;7538;53.626;9.906;2023-08-01T01:32:23;16.90;99.90
14893;DHT22;7538;53.626;9.906;2023-08-01T01:34:51;16.90;99.90
14893;DHT22;7538;53.626;9.906;2023-08-01T01:37:18;16.90;99.90
14893;DHT22;7538;53.626;9.906;2023-08-01T01:44:48;16.90;99.90
14893;DHT22;7538;53.626;9.906;2023-08-01T01:47:15;17.00;99.90
14893;DHT22;7538;53.626;9.906;2023-08-01T01:49:42;16.90;99.90
14893;DHT22;7538;53.626;9.906;2023-08-01T01:52:08;16.90;99.90
14893;DHT22;7538;53.626;9.906;2023-08-01T01:54:35;16.90;99.90
14893;DHT22;7538;53.626;9.906;2023-08-01T01:57:02;16.90;99.90
14893;DHT22;7538;53.626;9.906;2023-08-01T01:59:29;16.90;99.90
14893;DHT22;7538;53.626;9.906;2023-08-01T02:01:57;17.70;99.90
14893;DHT22;7538;53.626;9.906;2023-08-01T02:04:25;16.90;99.90
14893;DHT22;7538;53.626;9.906;2023-08-01T02:06:52;17.00;99.90
14893;DHT22;7538;53.626;9.906;2023-08-01T02:09:20;17.00;99.90
14893;DHT22;7538;53.626;9.906;2023-08-01T02:11:47;21.20;99.90
14893;DHT22;7538;53.626;9.906;2023-08-01T02:14:14;17.00;99.90
14893;DHT22;7538;53.626;9.906;2023-08-01T02:25:16;17.10;99.90
14893;DHT22;7538;53.626;9.906;2023-08-01T02:27:42;17.10;99.90
14893;DHT22;7538;53.626;9.906;2023-08-01T02:30:10;17.10;99.90
14893;DHT22;7538;53.626;9.906;2023-08-01T02:32:37;17.10;99.90
14893;DHT22;7538;53.626;9.906;2023-08-01T02:35:26;17.10;99.90
14893;DHT22;7538;53.626;9.906;2023-08-01T02:37:53;17.40;99.90
14893;DHT22;7538;53.626;9.906;2023-08-01T02:40:21;17.10;99.90
14893;DHT22;7538;53.626;9.906;2023-08-01T02:42:48;17.20;99.90
14893;DHT22;7538;53.626;9.906;2023-08-01T02:54:36;17.20;99.90
14893;DHT22;7538;53.626;9.906;2023-08-01T02:57:10;17.40;99.90
14893;DHT22;7538;53.626;9.906;2023-08-01T02:59:37;17.20;99.90
14893;DHT22;7538;53.626;9.906;2023-08-01T03:02:04;17.20;99.90
14893;DHT22;7538;53.626;9.906;2023-08-01T03:04:31;17.20;99.90
14893;DHT22;7538;53.626;9.906;2023-08-01T03:06:57;17.20;99.90
14893;DHT22;7538;53.626;9.906;2023-08-01T03:09:24;17.20;99.90
14893;DHT22;7538;53.626;9.906;2023-08-01T03:15:14;17.50;99.90
14893;DHT22;7538;53.626;9.906;2023-08-01T03:17:41;17.30;99.90
14893;DHT22;7538;53.626;9.906;2023-08-01T03:20:08;17.30;99.90
14893;DHT22;7538;53.626;9.906;2023-08-01T03:22:37;17.30;99.90
14893;DHT22;7538;53.626;9.906;2023-08-01T03:25:04;17.30;99.90
14893;DHT22;7538;53.626;9.906;2023-08-01T03:27:33;17.30;99.90
14893;DHT22;7538;53.626;9.906;2023-08-01T03:30:00;17.30;99.90
14893;DHT22;7538;53.626;9.906;2023-08-01T03:32:28;17.30;99.90
14893;DHT22;7538;53.626;9.906;2023-08-01T03:34:54;17.30;99.90
14893;DHT22;7538;53.626;9.906;2023-08-01T03:37:21;17.30;99.90
14893;DHT22;7538;53.626;9.906;2023-08-01T03:39:48;17.30;99.90
14893;DHT22;7538;53.626;9.906;2023-08-01T03:42:15;17.30;99.90
14893;DHT22;7538;53.626;9.906;2023-08-01T03:44:42;17.20;99.90
14893;DHT22;7538;53.626;9.906;2023-08-01T03:47:08;17.30;99.90
14893;DHT22;7538;53.626;9.906;2023-08-01T03:49:36;17.40;99.90
14893;DHT22;7538;53.626;9.906;2023-08-01T03:52:04;17.30;99.90
14893;DHT22;7538;53.626;9.906;2023-08-01T03:54:56;17.30;99.90
14893;DHT22;7538;53.626;9.906;2023-08-01T03:57:23;17.30;99.90
14893;DHT22;7538;53.626;9.906;2023-08-01T03:59:49;17.30;99.90
14893;DHT22;7538;53.626;9.906;2023-08-01T04:02:16;17.30;99.90
14893;DHT22;7538;53.626;9.906;2023-08-01T04:04:45;17.30;99.90
14893;DHT22;7538;53.626;9.906;2023-08-01T04:07:12;17.30;99.90
14893;DHT22;7538;53.626;9.906;2023-08-01T04:09:39;17.30;99.90
14893;DHT22;7538;53.626;9.906;2023-08-01T04:12:06;17.30;99.90
14893;DHT22;7538;53.626;9.906;2023-08-01T04:14:33;17.30;99.90
14893;DHT22;7538;53.626;9.906;2023-08-01T04:17:00;17.30;99.90
14893;DHT22;7538;53.626;9.906;2023-08-01T04:19:26;17.30;99.90
14893;DHT22;7538;53.626;9.906;2023-08-01T04:21:55;17.20;99.90
14893;DHT22;7538;53.626;9.906;2023-08-01T04:24:21;17.30;99.90
14893;DHT22;7538;53.626;9.906;2023-08-01T04:26:50;17.40;99.90
14893;DHT22;7538;53.626;9.906;2023-08-01T04:29:17;17.30;99.90
14893;DHT22;7538;53.626;9.906;2023-08-01T04:31:44;17.30;99.90
14893;DHT22;7538;53.626;9.906;2023-08-01T04:34:11;17.30;99.90
14893;DHT22;7538;53.626;9.906;2023-08-01T04:36:37;17.30;99.90
14893;DHT22;7538;53.626;9.906;2023-08-01T04:39:06;17.30;99.90
14893;DHT22;7538;53.626;9.906;2023-08-01T04:41:32;21.50;99.90
14893;DHT22;7538;53.626;9.906;2023-08-01T04:43:59;17.30;99.90
14893;DHT22;7538;53.626;9.906;2023-08-01T04:46:26;17.30;99.90
14893;DHT22;7538;53.626;9.906;2023-08-01T04:48:55;17.30;99.90
14893;DHT22;7538;53.626;9.906;2023-08-01T04:51:22;17.30;99.90
14893;DHT22;7538;53.626;9.906;2023-08-01T04:53:49;17.30;99.90
14893;DHT22;7538;53.626;9.906;2023-08-01T04:56:17;17.30;99.90
14893;DHT22;7538;53.626;9.906;2023-08-01T04:58:43;17.40;99.90
14893;DHT22;7538;53.626;9.906;2023-08-01T05:01:10;17.40;99.90
14893;DHT22;7538;53.626;9.906;2023-08-01T05:03:37;17.40;99.90
14893;DHT22;7538;53.626;9.906;2023-08-01T05:06:04;17.40;99.90
14893;DHT22;7538;53.626;9.906;2023-08-01T05:08:31;17.40;99.90
14893;DHT22;7538;53.626;9.906;2023-08-01T05:10:57;17.40;99.90
14893;DHT22;7538;53.626;9.906;2023-08-01T05:13:25;17.40;99.90
14893;DHT22;7538;53.626;9.906;2023-08-01T05:15:52;17.40;99.90
14893;DHT22;7538;53.626;9.906;2023-08-01T05:18:19;17.40;99.90
14893;DHT22;7538;53.626;9.906;2023-08-01T05:20:46;17.50;99.90
14893;DHT22;7538;53.626;9.906;2023-08-01T05:23:13;17.50;99.90
14893;DHT22;7538;53.626;9.906;2023-08-01T05:25:39;17.50;99.90
14893;DHT22;7538;53.626;9.906;2023-08-01T05:28:06;17.50;99.90
14893;DHT22;7538;53.626;9.906;2023-08-01T05:30:34;17.50;99.90
14893;DHT22;7538;53.626;9.906;2023-08-01T05:33:01;17.40;99.90
14893;DHT22;7538;53.626;9.906;2023-08-01T05:35:28;17.40;99.90
14893;DHT22;7538;53.626;9.906;2023-08-01T05:37:54;17.40;99.90
14893;DHT22;7538;53.626;9.906;2023-08-01T05:40:21;17.40;99.90
14893;DHT22;7538;53.626;9.906;2023-08-01T05:42:48;17.30;99.90
14893;DHT22;7538;53.626;9.906;2023-08-01T05:45:15;17.40;99.90
14893;DHT22;7538;53.626;9.906;2023-08-01T05:47:43;17.40;99.90
14893;DHT22;7538;53.626;9.906;2023-08-01T05:50:10;17.40;99.90
14893;DHT22;7538;53.626;9.906;2023-08-01T05:52:37;17.40;99.90
14893;DHT22;7538;53.626;9.906;2023-08-01T05:57:10;17.50;99.90
14893;DHT22;7538;53.626;9.906;2023-08-01T05:58:09;17.70;99.90
14893;DHT22;7538;53.626;9.906;2023-08-01T06:00:36;17.50;99.90
14893;DHT22;7538;53.626;9.906;2023-08-01T06:03:04;18.60;99.90
14893;DHT22;7538;53.626;9.906;2023-08-01T06:05:31;17.70;99.90
14893;DHT22;7538;53.626;9.906;2023-08-01T06:08:09;17.70;99.90
14893;DHT22;7538;53.626;9.906;2023-08-01T06:10:37;17.80;99.90
14893;DHT22;7538;53.626;9.906;2023-08-01T06:13:04;17.90;99.90
14893;DHT22;7538;53.626;9.906;2023-08-01T06:15:31;17.90;99.90
14893;DHT22;7538;53.626;9.906;2023-08-01T06:17:58;18.20;99.90
14893;DHT22;7538;53.626;9.906;2023-08-01T06:20:26;18.50;99.90
14893;DHT22;7538;53.626;9.906;2023-08-01T06:22:53;18.60;99.90
14893;DHT22;7538;53.626;9.906;2023-08-01T06:25:19;18.80;99.90
14893;DHT22;7538;53.626;9.906;2023-08-01T06:27:46;18.90;99.90
14893;DHT22;7538;53.626;9.906;2023-08-01T06:30:13;18.90;99.90
14893;DHT22;7538;53.626;9.906;2023-08-01T06:32:40;18.90;99.90
14893;DHT22;7538;53.626;9.906;2023-08-01T06:35:07;18.80;99.90
14893;DHT22;7538;53.626;9.906;2023-08-01T06:37:35;18.70;99.90
14893;DHT22;7538;53.626;9.906;2023-08-01T06:40:02;18.40;99.90
14893;DHT22;7538;53.626;9.906;2023-08-01T06:42:29;18.10;99.90
14893;DHT22;7538;53.626;9.906;2023-08-01T06:44:56;18.00;99.90
14893;DHT22;7538;53.626;9.906;2023-08-01T06:47:23;18.00;99.90
14893;DHT22;7538;53.626;9.906;2023-08-01T06:50:11;18.00;99.90
14893;DHT22;7538;53.626;9.906;2023-08-01T06:52:39;18.00;99.90
14893;DHT22;7538;53.626;9.906;2023-08-01T06:55:06;17.90;99.90
14893;DHT22;7538;53.626;9.906;2023-08-01T06:57:33;17.90;99.90
14893;DHT22;7538;53.626;9.906;2023-08-01T07:00:00;17.90;99.90
14893;DHT22;7538;53.626;9.906;2023-08-01T07:02:26;18.00;99.90
14893;DHT22;7538;53.626;9.906;2023-08-01T07:04:53;18.00;99.90
14893;DHT22;7538;53.626;9.906;2023-08-01T07:07:20;18.20;99.90
14893;DHT22;7538;53.626;9.906;2023-08-01T07:09:48;18.40;99.90
14893;DHT22;7538;53.626;9.906;2023-08-01T07:12:15;18.50;99.90
14893;DHT22;7538;53.626;9.906;2023-08-01T07:14:42;18.50;99.90
14893;DHT22;7538;53.626;9.906;2023-08-01T07:17:09;18.50;99.90
14893;DHT22;7538;53.626;9.906;2023-08-01T07:19:35;18.30;99.90
14893;DHT22;7538;53.626;9.906;2023-08-01T07:22:03;18.30;99.90
14893;DHT22;7538;53.626;9.906;2023-08-01T07:24:30;18.20;99.90
14893;DHT22;7538;53.626;9.906;2023-08-01T07:26:58;18.40;99.90
14893;DHT22;7538;53.626;9.906;2023-08-01T07:29:24;18.60;99.90
14893;DHT22;7538;53.626;9.906;2023-08-01T07:31:51;18.60;99.90
14893;DHT22;7538;53.626;9.906;2023-08-01T07:34:18;18.60;99.90
14893;DHT22;7538;53.626;9.906;2023-08-01T07:36:47;18.70;99.90
14893;DHT22;7538;53.626;9.906;2023-08-01T07:39:15;18.70;99.90
14893;DHT22;7538;53.626;9.906;2023-08-01T07:41:41;18.90;99.90
14893;DHT22;7538;53.626;9.906;2023-08-01T07:44:09;19.40;99.90
14893;DHT22;7538;53.626;9.906;2023-08-01T07:46:36;19.70;99.90
14893;DHT22;7538;53.626;9.906;2023-08-01T07:49:03;20.00;99.90
14893;DHT22;7538;53.626;9.906;2023-08-01T07:51:30;19.90;99.90
14893;DHT22;7538;53.626;9.906;2023-08-01T07:53:59;19.80;99.90
14893;DHT22;7538;53.626;9.906;2023-08-01T07:56:26;19.80;99.90
14893;DHT22;7538;53.626;9.906;2023-08-01T07:58:53;19.90;99.90
14893;DHT22;7538;53.626;9.906;2023-08-01T08:01:21;19.80;99.90
14893;DHT22;7538;53.626;9.906;2023-08-01T08:03:48;19.80;99.90
14893;DHT22;7538;53.626;9.906;2023-08-01T08:06:14;20.10;99.90
14893;DHT22;7538;53.626;9.906;2023-08-01T08:08:41;20.20;99.90
14893;DHT22;7538;53.626;9.906;2023-08-01T08:11:08;20.60;99.90
14893;DHT22;7538;53.626;9.906;2023-08-01T08:13:35;20.90;99.90
14893;DHT22;7538;53.626;9.906;2023-08-01T08:16:01;21.50;99.90
14893;DHT22;7538;53.626;9.906;2023-08-01T08:18:31;21.90;99.90
14893;DHT22;7538;53.626;9.906;2023-08-01T08:20:58;22.10;99.90
14893;DHT22;7538;53.626;9.906;2023-08-01T08:23:27;22.60;99.90
14893;DHT22;7538;53.626;9.906;2023-08-01T08:25:57;23.00;99.90
14893;DHT22;7538;53.626;9.906;2023-08-01T08:28:32;23.00;99.90
14893;DHT22;7538;53.626;9.906;2023-08-01T08:31:05;23.70;99.90
14893;DHT22;7538;53.626;9.906;2023-08-01T08:33:37;23.70;99.90
14893;DHT22;7538;53.626;9.906;2023-08-01T08:36:11;23.40;99.90
14893;DHT22;7538;53.626;9.906;2023-08-01T08:38:42;23.30;99.90
14893;DHT22;7538;53.626;9.906;2023-08-01T08:41:21;23.10;99.90
14893;DHT22;7538;53.626;9.906;2023-08-01T08:43:55;23.20;99.90
14893;DHT22;7538;53.626;9.906;2023-08-01T08:46:28;23.40;99.90
14893;DHT22;7538;53.626;9.906;2023-08-01T08:49:03;24.10;99.90
14893;DHT22;7538;53.626;9.906;2023-08-01T08:54:58;24.30;99.90
14893;DHT22;7538;53.626;9.906;2023-08-01T08:57:32;23.70;99.90
14893;DHT22;7538;53.626;9.906;2023-08-01T09:00:07;23.20;99.90
14893;DHT22;7538;53.626;9.906;2023-08-01T09:02:38;22.90;99.90
14893;DHT22;7538;53.626;9.906;2023-08-01T09:05:19;22.70;99.90
14893;DHT22;7538;53.626;9.906;2023-08-01T09:07:52;22.40;99.90
14893;DHT22;7538;53.626;9.906;2023-08-01T09:10:22;21.90;99.90
14893;DHT22;7538;53.626;9.906;2023-08-01T09:12:53;21.60;99.90
14893;DHT22;7538;53.626;9.906;2023-08-01T09:15:26;21.40;99.90
14893;DHT22;7538;53.626;9.906;2023-08-01T09:17:55;21.30;99.90
14893;DHT22;7538;53.626;9.906;2023-08-01T09:20:27;21.30;99.90
14893;DHT22;7538;53.626;9.906;2023-08-01T09:26:14;24.30;99.90
14893;DHT22;7538;53.626;9.906;2023-08-01T09:28:41;22.70;99.90
14893;DHT22;7538;53.626;9.906;2023-08-01T09:31:09;23.50;99.90
14893;DHT22;7538;53.626;9.906;2023-08-01T09:33:40;24.20;99.90
14893;DHT22;7538;53.626;9.906;2023-08-01T09:36:08;25.40;99.90
14893;DHT22;7538;53.626;9.906;2023-08-01T09:38:36;26.90;99.90
14893;DHT22;7538;53.626;9.906;2023-08-01T09:41:03;27.70;99.90
14893;DHT22;7538;53.626;9.906;2023-08-01T09:47:10;30.30;99.70
14893;DHT22;7538;53.626;9.906;2023-08-01T09:49:48;31.30;89.20
14893;DHT22;7538;53.626;9.906;2023-08-01T09:52:26;31.40;87.60
14893;DHT22;7538;53.626;9.906;2023-08-01T09:54:53;31.30;89.70
14893;DHT22;7538;53.626;9.906;2023-08-01T09:57:21;31.10;87.50
14893;DHT22;7538;53.626;9.906;2023-08-01T09:59:49;30.90;86.80
14893;DHT22;7538;53.626;9.906;2023-08-01T10:02:18;31.10;80.50
14893;DHT22;7538;53.626;9.906;2023-08-01T10:04:46;31.00;82.90
14893;DHT22;7538;53.626;9.906;2023-08-01T10:07:20;31.20;84.10
14893;DHT22;7538;53.626;9.906;2023-08-01T10:09:49;30.90;78.20
14893;DHT22;7538;53.626;9.906;2023-08-01T10:12:17;30.60;77.90
14893;DHT22;7538;53.626;9.906;2023-08-01T10:14:45;30.30;83.20
14893;DHT22;7538;53.626;9.906;2023-08-01T10:17:12;31.20;77.00
14893;DHT22;7538;53.626;9.906;2023-08-01T10:19:39;31.20;73.80
14893;DHT22;7538;53.626;9.906;2023-08-01T10:22:09;30.50;74.00
14893;DHT22;7538;53.626;9.906;2023-08-01T10:24:39;30.00;79.10
14893;DHT22;7538;53.626;9.906;2023-08-01T10:27:12;29.50;80.50
14893;DHT22;7538;53.626;9.906;2023-08-01T10:29:39;28.90;84.60
14893;DHT22;7538;53.626;9.906;2023-08-01T10:32:06;28.10;85.90
14893;DHT22;7538;53.626;9.906;2023-08-01T10:34:33;27.20;90.20
14893;DHT22;7538;53.626;9.906;2023-08-01T10:37:00;26.10;93.30
14893;DHT22;7538;53.626;9.906;2023-08-01T10:39:27;25.10;98.90
14893;DHT22;7538;53.626;9.906;2023-08-01T10:41:59;24.40;99.90
14893;DHT22;7538;53.626;9.906;2023-08-01T10:44:26;24.30;99.90
14893;DHT22;7538;53.626;9.906;2023-08-01T10:46:54;24.30;99.90
14893;DHT22;7538;53.626;9.906;2023-08-01T10:49:34;24.10;99.90
14893;DHT22;7538;53.626;9.906;2023-08-01T10:52:01;23.50;99.90
14893;DHT22;7538;53.626;9.906;2023-08-01T10:54:28;23.10;99.90
14893;DHT22;7538;53.626;9.906;2023-08-01T10:56:59;22.90;99.90
14893;DHT22;7538;53.626;9.906;2023-08-01T10:59:27;22.30;99.90
14893;DHT22;7538;53.626;9.906;2023-08-01T11:01:59;22.00;99.90
14893;DHT22;7538;53.626;9.906;2023-08-01T11:04:26;21.60;99.90
14893;DHT22;7538;53.626;9.906;2023-08-01T11:06:54;21.50;99.90
14893;DHT22;7538;53.626;9.906;2023-08-01T11:09:23;21.20;99.90
14893;DHT22;7538;53.626;9.906;2023-08-01T11:11:51;20.80;99.90
14893;DHT22;7538;53.626;9.906;2023-08-01T11:14:21;20.60;99.90
14893;DHT22;7538;53.626;9.906;2023-08-01T11:16:49;20.40;99.90
14893;DHT22;7538;53.626;9.906;2023-08-01T11:19:20;19.90;99.90
14893;DHT22;7538;53.626;9.906;2023-08-01T11:21:47;19.70;99.90
14893;DHT22;7538;53.626;9.906;2023-08-01T11:24:16;19.50;99.90
14893;DHT22;7538;53.626;9.906;2023-08-01T11:26:43;19.30;99.90
14893;DHT22;7538;53.626;9.906;2023-08-01T11:29:10;19.20;99.90
14893;DHT22;7538;53.626;9.906;2023-08-01T11:31:39;19.10;99.90
14893;DHT22;7538;53.626;9.906;2023-08-01T11:34:07;18.90;99.90
14893;DHT22;7538;53.626;9.906;2023-08-01T11:36:35;18.90;99.90
14893;DHT22;7538;53.626;9.906;2023-08-01T11:39:03;18.70;99.90
14893;DHT22;7538;53.626;9.906;2023-08-01T11:41:30;18.70;99.90
14893;DHT22;7538;53.626;9.906;2023-08-01T11:44:01;18.60;99.90
14893;DHT22;7538;53.626;9.906;2023-08-01T11:46:31;18.70;99.90
14893;DHT22;7538;53.626;9.906;2023-08-01T11:49:05;18.80;99.90
14893;DHT22;7538;53.626;9.906;2023-08-01T11:51:39;18.80;99.90
14893;DHT22;7538;53.626;9.906;2023-08-01T11:54:08;19.20;99.90
14893;DHT22;7538;53.626;9.906;2023-08-01T11:56:37;19.10;99.90
14893;DHT22;7538;53.626;9.906;2023-08-01T11:59:10;19.20;99.90
14893;DHT22;7538;53.626;9.906;2023-08-01T12:01:38;19.40;99.90
14893;DHT22;7538;53.626;9.906;2023-08-01T12:04:07;19.80;99.90
14893;DHT22;7538;53.626;9.906;2023-08-01T12:06:34;20.50;99.90
14893;DHT22;7538;53.626;9.906;2023-08-01T12:09:07;20.60;99.90
14893;DHT22;7538;53.626;9.906;2023-08-01T12:11:34;21.10;99.90
14893;DHT22;7538;53.626;9.906;2023-08-01T12:14:02;21.20;99.90
14893;DHT22;7538;53.626;9.906;2023-08-01T12:16:29;21.30;99.90
14893;DHT22;7538;53.626;9.906;2023-08-01T12:18:56;21.20;99.90
14893;DHT22;7538;53.626;9.906;2023-08-01T12:21:24;21.40;99.90
14893;DHT22;7538;53.626;9.906;2023-08-01T12:23:51;21.50;99.90
14893;DHT22;7538;53.626;9.906;2023-08-01T12:26:18;21.60;99.90
14893;DHT22;7538;53.626;9.906;2023-08-01T12:28:45;21.60;99.90
14893;DHT22;7538;53.626;9.906;2023-08-01T12:31:16;21.60;99.90
14893;DHT22;7538;53.626;9.906;2023-08-01T12:33:43;21.40;99.90
14893;DHT22;7538;53.626;9.906;2023-08-01T12:36:10;21.30;99.90
14893;DHT22;7538;53.626;9.906;2023-08-01T12:38:38;21.40;99.90
14893;DHT22;7538;53.626;9.906;2023-08-01T12:41:06;21.10;99.90
14893;DHT22;7538;53.626;9.906;2023-08-01T12:43:33;21.10;99.90
14893;DHT22;7538;53.626;9.906;2023-08-01T12:46:00;20.90;99.90
14893;DHT22;7538;53.626;9.906;2023-08-01T12:48:27;20.90;99.90
14893;DHT22;7538;53.626;9.906;2023-08-01T12:50:54;20.80;99.90
14893;DHT22;7538;53.626;9.906;2023-08-01T12:53:21;20.60;99.90
14893;DHT22;7538;53.626;9.906;2023-08-01T12:55:51;20.40;99.90
14893;DHT22;7538;53.626;9.906;2023-08-01T12:58:18;20.30;99.90
14893;DHT22;7538;53.626;9.906;2023-08-01T13:00:45;20.10;99.90
14893;DHT22;7538;53.626;9.906;2023-08-01T13:03:12;20.10;99.90
14893;DHT22;7538;53.626;9.906;2023-08-01T13:05:41;19.90;99.90
14893;DHT22;7538;53.626;9.906;2023-08-01T13:08:09;19.80;99.90
14893;DHT22;7538;53.626;9.906;2023-08-01T13:10:38;19.80;99.90
14893;DHT22;7538;53.626;9.906;2023-08-01T13:13:06;20.00;99.90
14893;DHT22;7538;53.626;9.906;2023-08-01T13:15:33;20.10;99.90
14893;DHT22;7538;53.626;9.906;2023-08-01T13:18:00;20.10;99.90
14893;DHT22;7538;53.626;9.906;2023-08-01T13:20:27;20.30;99.90
14893;DHT22;7538;53.626;9.906;2023-08-01T13:22:54;20.40;99.90
14893;DHT22;7538;53.626;9.906;2023-08-01T13:25:20;20.40;99.90
14893;DHT22;7538;53.626;9.906;2023-08-01T13:27:47;20.40;99.90
14893;DHT22;7538;53.626;9.906;2023-08-01T13:30:15;20.60;99.90
14893;DHT22;7538;53.626;9.906;2023-08-01T13:32:43;20.70;99.90
14893;DHT22;7538;53.626;9.906;2023-08-01T13:35:53;20.50;99.90
14893;DHT22;7538;53.626;9.906;2023-08-01T13:38:23;20.50;99.90
14893;DHT22;7538;53.626;9.906;2023-08-01T13:40:50;20.50;99.90
14893;DHT22;7538;53.626;9.906;2023-08-01T13:43:17;20.40;99.90
14893;DHT22;7538;53.626;9.906;2023-08-01T13:45:45;20.60;99.90
14893;DHT22;7538;53.626;9.906;2023-08-01T13:48:12;20.80;99.90
14893;DHT22;7538;53.626;9.906;2023-08-01T13:50:39;21.00;99.90
14893;DHT22;7538;53.626;9.906;2023-08-01T13:53:05;21.30;99.90
14893;DHT22;7538;53.626;9.906;2023-08-01T13:55:35;21.20;99.90
14893;DHT22;7538;53.626;9.906;2023-08-01T13:58:02;21.30;99.90
14893;DHT22;7538;53.626;9.906;2023-08-01T14:00:29;21.10;99.90
14893;DHT22;7538;53.626;9.906;2023-08-01T14:02:57;21.40;99.90
14893;DHT22;7538;53.626;9.906;2023-08-01T14:05:24;20.70;99.90
14893;DHT22;7538;53.626;9.906;2023-08-01T14:07:52;20.40;99.90
14893;DHT22;7538;53.626;9.906;2023-08-01T14:10:19;20.00;99.90
14893;DHT22;7538;53.626;9.906;2023-08-01T14:12:47;19.70;99.90
14893;DHT22;7538;53.626;9.906;2023-08-01T14:15:14;19.40;99.90
14893;DHT22;7538;53.626;9.906;2023-08-01T14:17:40;19.20;99.90
14893;DHT22;7538;53.626;9.906;2023-08-01T14:20:09;19.00;99.90
14893;DHT22;7538;53.626;9.906;2023-08-01T14:22:36;18.90;99.90
14893;DHT22;7538;53.626;9.906;2023-08-01T14:25:04;18.80;99.90
14893;DHT22;7538;53.626;9.906;2023-08-01T14:27:39;18.80;99.90
14893;DHT22;7538;53.626;9.906;2023-08-01T14:30:19;17.90;99.90
14893;DHT22;7538;53.626;9.906;2023-08-01T14:32:46;19.00;99.90
14893;DHT22;7538;53.626;9.906;2023-08-01T14:35:14;19.10;99.90
14893;DHT22;7538;53.626;9.906;2023-08-01T14:37:40;19.10;99.90
14893;DHT22;7538;53.626;9.906;2023-08-01T14:40:11;19.20;99.90
14893;DHT22;7538;53.626;9.906;2023-08-01T14:42:38;19.20;99.90
14893;DHT22;7538;53.626;9.906;2023-08-01T14:45:05;19.20;99.90
14893;DHT22;7538;53.626;9.906;2023-08-01T14:47:32;19.30;99.90
14893;DHT22;7538;53.626;9.906;2023-08-01T14:50:00;19.40;99.90
14893;DHT22;7538;53.626;9.906;2023-08-01T14:52:28;19.50;99.90
14893;DHT22;7538;53.626;9.906;2023-08-01T14:54:54;19.50;99.90
14893;DHT22;7538;53.626;9.906;2023-08-01T14:57:21;19.70;99.90
14893;DHT22;7538;53.626;9.906;2023-08-01T14:59:48;19.70;99.90
14893;DHT22;7538;53.626;9.906;2023-08-01T15:02:15;19.90;99.90
14893;DHT22;7538;53.626;9.906;2023-08-01T15:04:42;20.00;99.90
14893;DHT22;7538;53.626;9.906;2023-08-01T15:07:09;20.10;99.90
14893;DHT22;7538;53.626;9.906;2023-08-01T15:09:37;20.10;99.90
14893;DHT22;7538;53.626;9.906;2023-08-01T15:12:04;20.20;99.90
14893;DHT22;7538;53.626;9.906;2023-08-01T15:14:31;20.20;99.90
14893;DHT22;7538;53.626;9.906;2023-08-01T15:16:59;20.10;99.90
14893;DHT22;7538;53.626;9.906;2023-08-01T15:19:26;20.30;99.90
14893;DHT22;7538;53.626;9.906;2023-08-01T15:21:53;19.90;99.90
14893;DHT22;7538;53.626;9.906;2023-08-01T15:24:19;19.90;99.90
14893;DHT22;7538;53.626;9.906;2023-08-01T15:26:48;20.00;99.90
14893;DHT22;7538;53.626;9.906;2023-08-01T15:29:15;19.90;99.90
14893;DHT22;7538;53.626;9.906;2023-08-01T15:31:42;19.80;99.90
14893;DHT22;7538;53.626;9.906;2023-08-01T15:34:08;19.80;99.90
14893;DHT22;7538;53.626;9.906;2023-08-01T15:36:35;19.70;99.90
14893;DHT22;7538;53.626;9.906;2023-08-01T15:39:02;19.50;99.90
14893;DHT22;7538;53.626;9.906;2023-08-01T15:41:29;19.30;99.90
14893;DHT22;7538;53.626;9.906;2023-08-01T15:43:57;19.20;99.90
14893;DHT22;7538;53.626;9.906;2023-08-01T15:46:24;19.30;99.90
14893;DHT22;7538;53.626;9.906;2023-08-01T15:48:51;19.30;99.90
14893;DHT22;7538;53.626;9.906;2023-08-01T15:51:17;19.40;99.90
14893;DHT22;7538;53.626;9.906;2023-08-01T15:53:44;19.60;99.90
14893;DHT22;7538;53.626;9.906;2023-08-01T15:56:11;19.70;99.90
14893;DHT22;7538;53.626;9.906;2023-08-01T15:58:39;19.90;99.90
14893;DHT22;7538;53.626;9.906;2023-08-01T16:01:07;20.00;99.90
14893;DHT22;7538;53.626;9.906;2023-08-01T16:03:36;20.10;99.90
14893;DHT22;7538;53.626;9.906;2023-08-01T16:06:03;20.30;99.90
14893;DHT22;7538;53.626;9.906;2023-08-01T16:08:30;20.40;99.90
14893;DHT22;7538;53.626;9.906;2023-08-01T16:10:57;20.50;99.90
14893;DHT22;7538;53.626;9.906;2023-08-01T16:13:24;20.60;99.90
14893;DHT22;7538;53.626;9.906;2023-08-01T16:15:50;20.50;99.90
14893;DHT22;7538;53.626;9.906;2023-08-01T16:18:18;20.50;99.90
14893;DHT22;7538;53.626;9.906;2023-08-01T16:20:47;20.30;99.90
14893;DHT22;7538;53.626;9.906;2023-08-01T16:23:14;20.40;99.90
14893;DHT22;7538;53.626;9.906;2023-08-01T16:25:41;20.50;99.90
14893;DHT22;7538;53.626;9.906;2023-08-01T16:28:08;20.50;99.90
14893;DHT22;7538;53.626;9.906;2023-08-01T16:30:35;20.50;99.90